チェンナイ の空港の天気 - METARとTAF

チェンナイ国際空港 ( VOMM / MAA ) - インド チェンナイ
飛行場実況気象(Metar)
観測時間01/20 23:00 IST (01/20 17:30 UTC)
風向・風速北北東 3m/s
視程5000m
天気現象煙霧
全天の4割程度の雲 雲底高度 550m
全天の8割程度の雲 雲底高度 3050m
気温27℃
湿度74%
気圧1013hPa
METARVOMM 201730Z 03005KT 5000 HZ SCT018 BKN100 27/22 Q1013 NOSIG
過去の天気等 Google飛行場航空写真 Wunderground天気予報

過去48時間のMETAR

飛行場予報(TAF)
発表時間: 1/20 22:30 IST (1/20 17:00 UTC)
予報対象時間: 20日23時 IST ~ 22日5時 IST
風向・風速北北東 3m/s
視程5,000m
天気現象煙霧
全天の4割程度の雲 雲底高度 550m
全天の4割程度の雲 雲底高度 3,050m
21日2時 IST ~ 21日3時 IST に徐々に
視程3,000m
天気現象もや
21日8時 IST ~ 21日10時 IST に徐々に
風向・風速北北東 6m/s
視程5,000m
天気現象煙霧
21日15時 IST ~ 21日23時 IST に一時的に
全天の4割程度の雲 雲底高度 460m
少しの積乱雲 雲底高度 760m
全天の8割程度の雲 雲底高度 3,050m
21日23時 IST ~ 22日24時 IST に徐々に
風向・風速北北東 3m/s
視程3,000m
天気現象もや
TAF VOMM 201700Z 2018/2124 02005KT 5000 HZ SCT018 SCT100
BECMG 2021/2022 3000 BR
BECMG 2103/2105 03012KT 5000 HZ
TEMPO 2110/2118 SCT015 FEW025CB BKN100
BECMG 2118/2119 02005KT 3000 BR